Time;durP1;ratioP1;P1;durP2;ratioP2;P2;SDS_P1;SDS_P2;PMS_P1;PMS_P2;Temp;Humidity;BMP_temperature;BMP_pressure;BME280_temperature;BME280_humidity;BME280_pressure;Samples;Min_cycle;Max_cycle;Signal;HPM_P1;HPM_P2
2022/10/05 00:01:28;;;;;;;;;16.00;15.60;;;;;15.86;58.54;100362.91;5110929;27;8846;-74
2022/10/05 00:04:06;;;;;;;;;16.60;16.60;;;;;15.83;58.55;100368.19;5130857;27;8853;-74
2022/10/05 00:06:35;;;;;;;;;16.00;14.60;;;;;15.82;58.85;100362.94;5125868;27;8844;-75
2022/10/05 00:09:15;;;;;;;;;19.20;17.20;;;;;15.88;58.92;100368.13;5110150;28;8924;-76
2022/10/05 00:11:44;;;;;;;;;16.00;16.00;;;;;15.81;58.72;100366.47;5092324;28;9581;-75
2022/10/05 00:14:17;;;;;;;;;18.60;17.20;;;;;15.84;58.89;100367.31;5110424;28;8840;-75
2022/10/05 00:16:47;;;;;;;;;15.20;15.20;;;;;15.81;58.71;100362.06;5097289;27;8844;-73
2022/10/05 00:19:25;;;;;;;;;20.80;17.60;;;;;15.87;58.88;100362.00;5115528;28;8864;-74
2022/10/05 00:21:57;;;;;;;;;18.60;18.60;;;;;15.76;59.54;100370.00;5118265;27;8822;-72
2022/10/05 00:24:25;;;;;;;;;19.20;18.60;;;;;15.76;59.04;100366.47;5130928;27;9059;-74
2022/10/05 00:26:54;;;;;;;;;21.80;19.60;;;;;15.75;59.17;100377.91;5130356;27;9625;-75
2022/10/05 00:29:25;;;;;;;;;16.40;16.40;;;;;15.77;59.21;100376.13;5112191;27;9672;-74
2022/10/05 00:31:54;;;;;;;;;18.20;16.80;;;;;15.75;59.40;100370.88;5091702;28;9695;-77
2022/10/05 00:34:26;;;;;;;;;19.00;17.20;;;;;15.75;59.10;100373.50;5106207;28;8864;-77
2022/10/05 00:36:54;;;;;;;;;19.60;17.80;;;;;15.78;59.34;100372.59;5089484;28;8863;-77
2022/10/05 00:39:23;;;;;;;;;20.60;16.80;;;;;15.72;59.28;100372.63;5071414;28;8883;-74
2022/10/05 00:42:10;;;;;;;;;22.40;21.40;;;;;15.67;59.56;100382.31;5089489;28;8851;-77
2022/10/05 00:44:45;;;;;;;;;20.20;18.00;;;;;15.50;60.16;100372.81;5070475;28;8844;-76
2022/10/05 00:47:30;;;;;;;;;20.80;19.60;;;;;15.36;60.60;100377.28;5086224;28;8840;-73
2022/10/05 00:50:16;;;;;;;;;17.80;16.60;;;;;15.20;60.80;100380.00;5102082;28;8844;-76
2022/10/05 00:52:54;;;;;;;;;20.40;18.40;;;;;15.18;60.93;100383.53;5086726;28;9735;-74
2022/10/05 00:55:35;;;;;;;;;23.80;19.20;;;;;15.16;61.37;100385.28;5085529;28;9605;-73
2022/10/05 00:58:14;;;;;;;;;19.60;19.60;;;;;15.15;61.39;100379.16;5085421;28;8882;-77
2022/10/05 01:00:54;;;;;;;;;17.00;15.40;;;;;15.14;61.55;100387.03;5085653;28;8892;-74
2022/10/05 01:03:30;;;;;;;;;18.80;17.80;;;;;15.04;62.00;100396.72;5089521;28;8856;-73
2022/10/05 01:06:13;;;;;;;;;18.80;17.40;;;;;15.23;60.96;100392.25;5102717;28;9068;-76
2022/10/05 01:08:55;;;;;;;;;20.60;17.60;;;;;15.32;60.77;100393.94;5088885;28;9592;-72
2022/10/05 01:11:30;;;;;;;;;17.60;17.60;;;;;15.35;60.81;100391.31;5101942;28;8840;-72
2022/10/05 01:14:12;;;;;;;;;22.00;20.20;;;;;15.44;60.23;100396.47;5105138;27;8962;-73
2022/10/05 01:16:50;;;;;;;;;17.20;15.00;;;;;15.51;60.21;100397.31;5101741;28;8844;-74
2022/10/05 01:19:43;;;;;;;;;15.80;15.80;;;;;15.59;59.73;100400.75;5101561;28;8911;-74
2022/10/05 01:22:24;;;;;;;;;16.00;16.00;;;;;15.57;59.57;100403.41;5085654;28;9523;-74
2022/10/05 01:25:06;;;;;;;;;16.20;15.60;;;;;15.60;59.63;100403.38;5082485;28;8864;-74
2022/10/05 01:27:42;;;;;;;;;20.20;16.40;;;;;15.58;59.34;100407.78;5086070;28;8986;-75
2022/10/05 01:30:13;;;;;;;;;19.80;16.00;;;;;15.56;59.39;100411.31;5085768;28;8864;-74
2022/10/05 01:32:48;;;;;;;;;19.60;18.80;;;;;15.54;59.35;100415.72;5102661;28;8863;-72
2022/10/05 01:35:31;;;;;;;;;16.80;16.80;;;;;15.59;59.12;100414.81;5055089;27;8872;-76
2022/10/05 01:38:16;;;;;;;;;23.00;18.40;;;;;15.57;59.38;100423.56;5088521;27;8845;-74
2022/10/05 01:40:53;;;;;;;;;19.60;16.60;;;;;15.56;59.13;100414.81;5070293;27;8882;-73
2022/10/05 01:43:30;;;;;;;;;18.40;17.00;;;;;15.58;58.96;100418.31;5088634;28;8866;-77
2022/10/05 01:46:13;;;;;;;;;20.00;19.20;;;;;15.57;58.86;100424.44;5106885;27;8836;-74
2022/10/05 01:48:52;;;;;;;;;19.40;16.60;;;;;15.55;58.77;100425.34;5106720;28;8856;-76
2022/10/05 01:51:36;;;;;;;;;15.20;13.00;;;;;15.56;58.82;100427.97;5108027;28;8851;-73
2022/10/05 01:54:18;;;;;;;;;22.00;18.00;;;;;15.53;59.24;100427.97;5088204;27;8872;-74
2022/10/05 01:56:59;;;;;;;;;19.20;17.60;;;;;15.53;58.94;100433.22;5088501;27;8867;-73
2022/10/05 01:59:46;;;;;;;;;18.20;16.60;;;;;15.52;59.17;100433.22;5088219;28;8863;-76
2022/10/05 02:02:17;;;;;;;;;20.60;18.20;;;;;15.44;58.99;100441.16;5106506;28;8867;-75
2022/10/05 02:04:50;;;;;;;;;15.00;15.00;;;;;15.43;59.16;100434.19;5063268;28;8944;-75
2022/10/05 02:07:40;;;;;;;;;17.40;16.60;;;;;15.41;59.14;100438.56;5028580;28;8874;-76
2022/10/05 02:10:18;;;;;;;;;18.60;17.60;;;;;15.45;59.26;100452.59;4997890;28;8855;-73
2022/10/05 02:12:50;;;;;;;;;19.80;19.00;;;;;15.39;59.09;100445.59;5046943;28;8983;-76
2022/10/05 02:15:26;;;;;;;;;17.80;16.60;;;;;15.45;58.83;100448.19;5046835;28;8948;-73
2022/10/05 02:18:02;;;;;;;;;20.40;17.40;;;;;15.40;58.88;100447.34;5045342;28;8856;-76
2022/10/05 02:20:34;;;;;;;;;18.00;12.80;;;;;15.37;58.74;100440.34;5046674;28;8883;-74
2022/10/05 02:23:07;;;;;;;;;18.60;17.20;;;;;15.38;58.84;100438.59;5029670;28;8856;-75
2022/10/05 02:25:40;;;;;;;;;16.60;14.20;;;;;15.36;59.03;100454.34;5063179;28;8848;-76
2022/10/05 02:28:15;;;;;;;;;19.60;19.00;;;;;15.36;58.75;100451.72;5058388;28;8921;-73
2022/10/05 02:30:52;;;;;;;;;16.20;14.80;;;;;15.33;59.34;100456.13;5030336;28;8895;-77
2022/10/05 02:33:27;;;;;;;;;18.60;15.40;;;;;15.35;59.51;100462.28;5045142;28;8879;-72
2022/10/05 02:36:02;;;;;;;;;16.20;14.60;;;;;15.30;59.54;100458.78;5026343;27;9646;-72
2022/10/05 02:38:41;;;;;;;;;19.00;19.00;;;;;15.34;59.33;100461.38;5060807;28;8867;-75
2022/10/05 02:41:24;;;;;;;;;23.40;22.20;;;;;15.36;59.06;100456.13;5045978;28;8996;-73
2022/10/05 02:44:02;;;;;;;;;17.80;16.40;;;;;15.31;59.25;100452.63;5044302;28;8862;-73
2022/10/05 02:46:40;;;;;;;;;19.80;19.00;;;;;15.25;59.23;100456.16;5063089;28;8841;-75
2022/10/05 02:49:22;;;;;;;;;19.40;18.00;;;;;15.24;59.34;100454.44;5033845;28;8975;-74
2022/10/05 02:52:03;;;;;;;;;15.80;14.40;;;;;15.26;59.16;100455.31;5037980;28;8964;-73
2022/10/05 02:54:43;;;;;;;;;20.00;18.40;;;;;15.24;59.18;100458.81;5047942;28;9004;-75
2022/10/05 02:57:23;;;;;;;;;18.00;17.80;;;;;15.21;59.36;100459.69;5067015;28;8852;-74
2022/10/05 03:00:02;;;;;;;;;24.60;21.20;;;;;15.15;59.44;100457.97;5049909;28;8848;-76
2022/10/05 03:02:40;;;;;;;;;15.00;14.60;;;;;15.16;59.32;100464.09;5064544;28;8843;-74
2022/10/05 03:05:20;;;;;;;;;19.80;18.60;;;;;15.20;59.03;100460.59;5027530;28;9694;-74
2022/10/05 03:07:57;;;;;;;;;13.00;11.40;;;;;14.89;60.57;100455.44;5064374;28;8928;-77
2022/10/05 03:10:32;;;;;;;;;25.20;23.60;;;;;14.87;60.50;100454.59;5084635;27;8878;-74
2022/10/05 03:13:08;;;;;;;;;32.25;28.50;;;;;14.88;60.48;100448.47;5074308;27;8879;-75
2022/10/05 03:15:50;;;;;;;;;17.20;16.40;;;;;14.82;61.11;100446.72;5108919;27;8956;-73
2022/10/05 03:18:34;;;;;;;;;30.75;28.25;;;;;14.76;61.17;100446.75;5108232;27;8841;-73
2022/10/05 03:21:15;;;;;;;;;27.00;25.75;;;;;14.81;61.01;100428.34;5043476;27;8841;-74
2022/10/05 03:24:12;;;;;;;;;19.80;19.40;;;;;14.86;61.16;100425.69;5110032;27;8928;-75
2022/10/05 03:26:52;;;;;;;;;17.80;17.40;;;;;14.83;61.17;100421.34;5107460;27;8869;-73
2022/10/05 03:29:33;;;;;;;;;6.80;5.80;;;;;14.91;60.90;100427.41;5106868;27;8970;-73
2022/10/05 03:32:16;;;;;;;;;24.00;21.60;;;;;14.90;61.01;100424.81;5103875;28;8872;-75
2022/10/05 03:34:52;;;;;;;;;17.00;16.80;;;;;14.88;60.86;100429.22;5087461;28;8851;-74
2022/10/05 03:37:27;;;;;;;;;20.20;18.60;;;;;14.88;60.78;100434.47;5087350;28;8967;-71
2022/10/05 03:40:06;;;;;;;;;20.80;19.00;;;;;14.92;60.84;100439.69;5049476;28;8949;-75
2022/10/05 03:42:46;;;;;;;;;63.00;49.25;;;;;14.88;61.02;100445.84;5087335;28;8852;-73
2022/10/05 03:45:27;;;;;;;;;61.00;49.50;;;;;14.95;60.85;100444.94;5087440;28;9620;-73
2022/10/05 03:48:05;;;;;;;;;31.00;30.25;;;;;14.93;60.75;100446.69;5071798;28;8969;-74
2022/10/05 03:50:45;;;;;;;;;21.00;20.00;;;;;14.82;60.82;100449.34;5088339;28;8864;-77
2022/10/05 03:53:19;;;;;;;;;24.20;19.40;;;;;14.76;60.92;100452.00;5088194;28;8981;-77
2022/10/05 03:55:54;;;;;;;;;35.25;32.75;;;;;14.69;61.35;100457.25;5065751;28;9650;-73
2022/10/05 03:58:28;;;;;;;;;48.75;41.00;;;;;14.73;61.02;100459.03;5066305;28;9668;-73
2022/10/05 04:01:03;;;;;;;;;24.75;23.00;;;;;14.73;61.41;100457.25;5066340;28;8864;-74
2022/10/05 04:03:36;;;;;;;;;30.25;24.50;;;;;14.73;61.31;100456.41;5049406;28;9006;-72
2022/10/05 04:06:12;;;;;;;;;25.00;23.50;;;;;14.77;61.08;100466.88;5059187;28;8835;-74
2022/10/05 04:08:47;;;;;;;;;22.20;22.00;;;;;14.75;61.16;100466.00;5069090;28;8942;-73
2022/10/05 04:11:25;;;;;;;;;25.50;24.25;;;;;14.76;61.06;100477.38;5048261;28;8837;-73
2022/10/05 04:14:00;;;;;;;;;23.40;21.80;;;;;14.75;60.93;100473.88;5049465;28;8818;-75
2022/10/05 04:16:34;;;;;;;;;27.25;25.50;;;;;14.73;61.02;100482.66;5066065;28;9623;-75
2022/10/05 04:19:10;;;;;;;;;53.25;44.75;;;;;14.76;60.80;100480.91;5049330;28;8869;-74
2022/10/05 04:21:49;;;;;;;;;57.00;46.75;;;;;14.82;60.87;100483.50;5049053;28;8912;-73
2022/10/05 04:24:28;;;;;;;;;34.25;29.25;;;;;14.85;60.97;100489.63;5049019;28;8853;-74
2022/10/05 04:27:00;;;;;;;;;29.25;28.25;;;;;14.82;60.92;100486.13;5048227;28;8961;-78
2022/10/05 04:29:38;;;;;;;;;29.25;27.50;;;;;14.85;60.65;100484.38;5017855;28;8864;-72
2022/10/05 04:32:22;;;;;;;;;26.75;25.50;;;;;14.87;60.85;100485.22;5033651;28;8878;-73
2022/10/05 04:35:03;;;;;;;;;36.50;32.25;;;;;14.88;60.77;100484.38;5067393;28;8862;-77
2022/10/05 04:37:45;;;;;;;;;26.75;25.75;;;;;14.85;60.58;100487.00;5084007;28;9591;-74
2022/10/05 04:40:32;;;;;;;;;31.50;27.00;;;;;14.82;60.84;100487.88;5059289;28;8880;-75
2022/10/05 04:43:08;;;;;;;;;34.25;29.25;;;;;14.67;60.99;100493.13;5050986;28;8875;-74
2022/10/05 04:46:05;;;;;;;;;30.00;27.50;;;;;14.57;61.44;100489.66;5064909;28;8850;-73
2022/10/05 04:48:59;;;;;;;;;31.25;27.25;;;;;14.54;61.75;100500.16;4949308;28;8867;-75
2022/10/05 04:51:37;;;;;;;;;25.00;24.25;;;;;14.50;61.94;100506.25;4949157;28;8910;-71
2022/10/05 04:54:20;;;;;;;;;33.75;31.50;;;;;14.55;61.90;100507.13;4967099;28;8864;-77
2022/10/05 04:56:55;;;;;;;;;29.00;28.75;;;;;14.59;61.73;100501.94;4952485;28;8859;-76
2022/10/05 04:59:41;;;;;;;;;29.75;27.50;;;;;14.70;61.65;100503.66;4970955;28;9695;-76
2022/10/05 05:02:19;;;;;;;;;21.50;20.25;;;;;14.73;61.69;100509.78;4970652;28;9608;-75
2022/10/05 05:05:04;;;;;;;;;35.00;32.50;;;;;14.78;61.36;100510.66;4983299;28;8845;-74
2022/10/05 05:07:41;;;;;;;;;32.75;30.25;;;;;14.84;61.32;100511.47;4968171;28;8859;-75
2022/10/05 05:10:46;;;;;;;;;27.50;26.75;;;;;14.85;61.40;100515.88;4983071;28;9027;-75
2022/10/05 05:13:45;;;;;;;;;31.25;31.25;;;;;14.88;61.25;100519.38;4987559;28;8972;-74
2022/10/05 05:16:25;;;;;;;;;33.50;31.25;;;;;14.96;61.28;100520.22;4982757;28;8849;-75
2022/10/05 05:19:22;;;;;;;;;29.50;29.00;;;;;15.13;60.89;100519.28;4949211;28;8874;-75
2022/10/05 05:22:01;;;;;;;;;30.25;28.75;;;;;15.03;60.76;100526.34;4952133;28;8868;-75
2022/10/05 05:24:43;;;;;;;;;36.25;32.75;;;;;15.13;60.50;100527.19;4904707;28;8871;-75
2022/10/05 05:27:37;;;;;;;;;30.75;30.75;;;;;15.19;60.30;100528.00;5046285;28;8852;-76
2022/10/05 05:30:18;;;;;;;;;33.75;31.75;;;;;15.26;59.88;100525.38;5063369;28;8899;-74
2022/10/05 05:33:01;;;;;;;;;32.75;31.25;;;;;15.20;60.32;100535.03;5046079;28;8868;-75
2022/10/05 05:35:45;;;;;;;;;27.25;26.25;;;;;15.19;60.32;100533.28;4981495;28;8890;-77
2022/10/05 05:38:26;;;;;;;;;30.75;30.00;;;;;15.14;60.40;100544.66;5044195;28;8858;-77
2022/10/05 05:41:07;;;;;;;;;35.50;30.75;;;;;15.28;60.17;100547.28;5024437;28;8979;-75
2022/10/05 05:44:00;;;;;;;;;36.25;34.50;;;;;15.49;59.85;100538.41;5007560;28;8872;-74
2022/10/05 05:46:37;;;;;;;;;34.75;31.25;;;;;15.57;59.71;100541.88;4993197;28;8868;-73
2022/10/05 05:49:36;;;;;;;;;38.25;33.50;;;;;15.59;59.32;100548.00;5057896;28;8863;-74
2022/10/05 05:52:14;;;;;;;;;41.50;35.75;;;;;15.51;59.50;100542.78;5027559;28;8859;-74
2022/10/05 05:54:48;;;;;;;;;44.75;36.50;;;;;15.40;59.53;100544.59;5027497;28;8836;-74
2022/10/05 05:57:24;;;;;;;;;37.75;33.75;;;;;15.36;59.81;100551.59;5028040;28;8851;-75
2022/10/05 06:00:02;;;;;;;;;35.00;33.00;;;;;15.40;60.11;100549.84;5027795;28;8856;-76
2022/10/05 06:02:47;;;;;;;;;36.00;32.75;;;;;15.47;60.19;100553.31;5027744;28;9511;-74
2022/10/05 06:05:28;;;;;;;;;30.00;28.50;;;;;15.60;60.07;100555.03;5037704;28;9622;-79
2022/10/05 06:08:03;;;;;;;;;36.00;32.75;;;;;15.72;59.59;100557.56;5047793;28;8965;-75
2022/10/05 06:10:40;;;;;;;;;43.75;38.75;;;;;15.85;59.52;100563.69;5051087;28;8845;-75
2022/10/05 06:13:19;;;;;;;;;31.50;30.25;;;;;15.80;59.35;100565.44;5039374;28;8926;-77
2022/10/05 06:15:54;;;;;;;;;35.75;33.25;;;;;15.65;59.69;100563.75;5034072;28;8879;-74
2022/10/05 06:18:25;;;;;;;;;34.25;31.25;;;;;15.68;59.85;100570.75;5028196;28;8871;-74
2022/10/05 06:21:01;;;;;;;;;44.25;35.75;;;;;15.55;60.48;100581.31;5046693;28;8857;-74
2022/10/05 06:23:43;;;;;;;;;36.25;32.25;;;;;15.66;60.32;100580.41;4985871;28;8857;-75
2022/10/05 06:26:22;;;;;;;;;34.75;33.00;;;;;15.78;59.77;100578.63;5064367;28;8879;-77
2022/10/05 06:28:57;;;;;;;;;35.75;32.75;;;;;15.86;60.02;100588.22;5065351;28;8853;-76
2022/10/05 06:31:43;;;;;;;;;30.25;27.50;;;;;16.09;59.05;100583.72;5034053;28;8856;-74
2022/10/05 06:34:34;;;;;;;;;37.50;33.25;;;;;16.25;58.81;100573.94;5050261;28;8927;-74
2022/10/05 06:37:10;;;;;;;;;32.50;31.75;;;;;16.30;58.05;100574.78;5043097;28;8864;-74
2022/10/05 06:39:58;;;;;;;;;37.75;33.50;;;;;16.50;57.28;100582.53;5034567;28;8848;-76
2022/10/05 06:42:53;;;;;;;;;31.50;31.25;;;;;16.73;57.55;100584.97;5051183;28;8860;-77
2022/10/05 06:46:02;;;;;;;;;39.25;33.75;;;;;16.80;56.98;100584.91;4987379;28;8893;-74
2022/10/05 06:49:03;;;;;;;;;33.25;32.50;;;;;17.01;56.81;100597.03;4997397;28;8849;-76
2022/10/05 06:51:57;;;;;;;;;38.75;32.75;;;;;17.09;56.16;100587.28;5009416;28;9739;-78
2022/10/05 06:54:45;;;;;;;;;33.25;31.25;;;;;17.08;55.77;100588.16;5007411;28;8846;-75
2022/10/05 06:57:35;;;;;;;;;29.75;27.75;;;;;17.25;55.42;100588.00;5007856;28;8866;-78
2022/10/05 07:00:14;;;;;;;;;30.75;30.00;;;;;17.35;54.75;100589.63;5008222;28;8932;-76
2022/10/05 07:02:53;;;;;;;;;26.50;25.00;;;;;17.27;55.15;100591.47;4978676;28;8961;-76
2022/10/05 07:05:54;;;;;;;;;35.00;31.75;;;;;17.63;55.27;100592.78;4993807;28;8945;-75
2022/10/05 07:08:34;;;;;;;;;30.75;30.25;;;;;17.65;54.66;100595.41;4959273;28;8897;-76
2022/10/05 07:11:16;;;;;;;;;31.75;30.75;;;;;17.51;54.44;100600.88;4949211;28;8875;-77
2022/10/05 07:14:04;;;;;;;;;33.25;31.00;;;;;17.42;54.32;100593.94;4968337;28;8989;-75
2022/10/05 07:16:45;;;;;;;;;38.25;34.75;;;;;17.28;54.87;100595.88;4974148;28;8853;-75
2022/10/05 07:19:34;;;;;;;;;41.25;35.25;;;;;16.40;58.04;100604.53;4987461;28;8868;-75
2022/10/05 07:22:28;;;;;;;;;41.00;33.50;;;;;16.61;57.48;100597.38;4965692;28;8869;-77
2022/10/05 07:25:11;;;;;;;;;37.75;34.50;;;;;16.75;57.50;100599.00;5029636;28;8949;-75
2022/10/05 07:27:48;;;;;;;;;32.75;32.00;;;;;17.06;56.48;100604.00;5030510;28;8866;-75
2022/10/05 07:30:20;;;;;;;;;46.50;38.75;;;;;17.19;56.54;100609.16;5029970;28;8938;-75
2022/10/05 07:32:58;;;;;;;;;36.50;31.00;;;;;17.55;55.98;100605.22;5030232;28;8859;-73
2022/10/05 07:38:32;;;;;;;;;36.25;32.00;;;;;17.88;54.37;100618.88;5026405;28;8980;-74
2022/10/05 07:41:08;;;;;;;;;57.25;46.25;;;;;18.07;54.34;100624.78;5021720;28;8843;-75
2022/10/05 07:43:45;;;;;;;;;37.00;33.50;;;;;18.25;53.85;100623.66;5005066;28;8956;-74
2022/10/05 07:46:42;;;;;;;;;34.50;32.25;;;;;18.39;52.87;100627.00;5050479;28;8866;-75
2022/10/05 07:49:21;;;;;;;;;30.75;30.50;;;;;18.50;51.94;100625.03;5050067;28;8844;-74
2022/10/05 07:51:56;;;;;;;;;28.80;27.20;;;;;18.40;51.98;100636.63;5050403;28;9616;-75
2022/10/05 07:54:35;;;;;;;;;28.25;26.50;;;;;18.05;52.86;100627.47;5049971;28;8863;-75
2022/10/05 07:57:17;;;;;;;;;44.75;38.00;;;;;18.44;52.88;100640.09;5033358;28;8878;-76
2022/10/05 07:59:56;;;;;;;;;35.50;33.00;;;;;18.58;52.13;100630.22;5049614;28;8867;-75
2022/10/05 08:02:28;;;;;;;;;29.25;28.50;;;;;18.43;51.65;100625.16;5033235;28;8889;-73
2022/10/05 08:05:03;;;;;;;;;29.50;29.00;;;;;18.09;53.24;100633.56;5049783;28;8921;-75
2022/10/05 08:07:34;;;;;;;;;28.80;28.80;;;;;18.42;52.05;100636.63;5066453;28;8879;-77
2022/10/05 08:10:18;;;;;;;;;30.40;28.20;;;;;18.70;51.42;100637.06;5066252;28;9699;-75
2022/10/05 08:13:00;;;;;;;;;30.50;28.25;;;;;18.79;51.64;100636.00;5066314;28;8864;-74
2022/10/05 08:15:34;;;;;;;;;27.25;26.25;;;;;18.59;51.31;100642.50;5061287;28;8856;-73
2022/10/05 08:18:10;;;;;;;;;44.50;36.00;;;;;18.04;52.75;100646.84;5088934;28;8987;-73
2022/10/05 08:20:45;;;;;;;;;16.60;16.60;;;;;17.76;53.62;100643.66;5071031;28;8936;-74
2022/10/05 08:23:27;;;;;;;;;25.80;25.20;;;;;18.35;52.61;100641.09;5088448;28;8852;-74
2022/10/05 08:26:15;;;;;;;;;29.20;26.60;;;;;18.67;51.62;100640.59;5088953;28;8870;-74
2022/10/05 08:28:51;;;;;;;;;29.00;27.60;;;;;18.27;52.54;100641.22;5045842;28;8850;-75
2022/10/05 08:31:25;;;;;;;;;27.80;26.60;;;;;18.23;52.94;100642.16;5045634;28;9556;-76
2022/10/05 08:34:02;;;;;;;;;29.00;27.20;;;;;18.61;52.49;100647.78;5029213;28;8958;-74
2022/10/05 08:36:48;;;;;;;;;31.60;30.40;;;;;18.71;51.68;100649.34;5056962;28;8861;-74
2022/10/05 08:39:24;;;;;;;;;39.25;34.00;;;;;18.60;52.48;100656.59;5018168;28;8867;-75
2022/10/05 08:42:41;;;;;;;;;30.50;26.75;;;;;19.17;51.23;100655.66;5064086;28;8840;-75
2022/10/05 08:45:39;;;;;;;;;25.00;24.20;;;;;18.29;52.64;100665.84;5053847;28;9594;-77
2022/10/05 08:48:43;;;;;;;;;18.60;17.20;;;;;18.07;52.74;100677.59;5046788;28;8854;-76
2022/10/05 08:51:41;;;;;;;;;18.60;18.20;;;;;18.41;51.73;100670.09;5004114;28;8870;-75
2022/10/05 08:54:41;;;;;;;;;25.25;24.00;;;;;19.04;51.07;100674.38;5003890;28;8913;-74
2022/10/05 08:57:32;;;;;;;;;20.40;18.60;;;;;19.42;49.81;100669.31;4926378;29;8903;-74
2022/10/05 09:00:09;;;;;;;;;19.20;18.20;;;;;19.78;49.18;100670.38;4927447;29;9717;-74
2022/10/05 09:03:06;;;;;;;;;21.60;19.80;;;;;19.92;47.84;100677.16;4895959;28;8892;-75
2022/10/05 09:06:15;;;;;;;;;21.60;20.00;;;;;19.59;48.53;100682.22;4927284;29;8880;-75
2022/10/05 09:09:20;;;;;;;;;22.80;22.20;;;;;19.60;48.75;100683.94;4927181;29;8860;-76
2022/10/05 09:12:06;;;;;;;;;18.60;18.20;;;;;19.97;47.72;100680.59;4911345;29;9599;-75
2022/10/05 09:14:51;;;;;;;;;23.00;23.00;;;;;20.27;47.05;100670.25;4927512;29;8888;-76
2022/10/05 09:18:18;;;;;;;;;21.60;20.40;;;;;20.57;46.80;100658.94;4927373;29;8861;-75
2022/10/05 09:20:52;;;;;;;;;22.40;22.20;;;;;20.78;45.88;100656.72;4849375;29;8894;-74
2022/10/05 09:23:37;;;;;;;;;18.20;17.80;;;;;20.90;44.80;100653.72;4852617;29;8998;-75
2022/10/05 09:26:09;;;;;;;;;22.20;21.60;;;;;21.05;44.30;100655.13;4852177;29;8894;-74
2022/10/05 09:28:56;;;;;;;;;26.40;25.00;;;;;21.30;44.45;100650.03;4882017;29;8855;-73
2022/10/05 09:31:51;;;;;;;;;25.80;24.40;;;;;21.56;44.90;100652.00;4912413;29;8868;-74
2022/10/05 09:34:49;;;;;;;;;22.25;20.00;;;;;21.79;43.95;100650.47;4955729;28;9034;-77
2022/10/05 09:37:48;;;;;;;;;36.00;33.00;;;;;21.80;43.48;100655.75;4964860;28;9010;-75
2022/10/05 09:40:50;;;;;;;;;28.75;25.75;;;;;22.09;42.35;100653.13;4965479;28;8864;-76
2022/10/05 09:43:54;;;;;;;;;29.00;26.25;;;;;22.19;41.69;100657.25;4870241;29;8893;-77
2022/10/05 09:47:07;;;;;;;;;27.40;27.00;;;;;20.81;44.01;100657.50;4854510;29;8877;-77
2022/10/05 09:50:09;;;;;;;;;26.40;26.40;;;;;21.46;43.65;100660.28;4780368;29;8910;-75
2022/10/05 09:58:54;;;;;;;;;31.50;30.00;;;;;21.36;42.86;100673.78;4797166;29;8873;-75
2022/10/05 10:01:53;;;;;;;;;30.25;29.50;;;;;21.63;43.17;100665.13;4815308;29;8882;-74
2022/10/05 10:04:31;;;;;;;;;30.75;27.25;;;;;21.73;42.19;100663.94;4816420;29;8905;-75
2022/10/05 10:07:47;;;;;;;;;25.40;25.40;;;;;21.94;42.49;100662.44;4816168;29;8894;-73
2022/10/05 10:10:57;;;;;;;;;28.20;25.80;;;;;21.98;42.56;100670.28;4812918;29;8904;-76
2022/10/05 10:13:54;;;;;;;;;26.20;24.60;;;;;22.13;42.55;100657.44;4807837;29;8916;-76
2022/10/05 10:16:37;;;;;;;;;22.20;21.00;;;;;21.09;41.70;100659.44;4815510;29;8894;-78
2022/10/05 10:19:28;;;;;;;;;28.25;27.00;;;;;20.43;43.57;100663.69;4816053;29;8915;-76
2022/10/05 10:22:17;;;;;;;;;27.20;23.80;;;;;20.44;43.89;100660.13;4846914;29;8925;-74
2022/10/05 10:25:07;;;;;;;;;32.50;29.75;;;;;20.55;44.01;100655.47;4861562;29;8875;-75
2022/10/05 10:27:53;;;;;;;;;28.50;27.50;;;;;20.83;44.07;100642.44;4891969;29;8875;-79
2022/10/05 10:30:42;;;;;;;;;25.50;25.50;;;;;21.05;43.67;100648.97;4907654;29;8998;-73
2022/10/05 10:33:37;;;;;;;;;26.00;23.25;;;;;21.21;42.82;100651.16;4953085;28;10179;-76
2022/10/05 10:36:16;;;;;;;;;22.40;22.20;;;;;20.95;42.69;100650.97;4984693;28;9009;-73
2022/10/05 10:38:58;;;;;;;;;19.80;19.00;;;;;20.94;42.48;100650.09;4984338;28;9594;-77
2022/10/05 10:41:52;;;;;;;;;22.80;20.20;;;;;21.13;41.78;100653.13;4985660;28;8860;-77
2022/10/05 10:45:04;;;;;;;;;19.40;18.60;;;;;20.18;43.58;100647.47;4968686;28;8853;-76
2022/10/05 10:47:47;;;;;;;;;23.20;22.40;;;;;19.73;44.34;100645.78;4984899;28;8934;-76
2022/10/05 10:50:51;;;;;;;;;21.40;21.40;;;;;19.58;44.84;100643.41;4970297;28;8880;-75
2022/10/05 10:53:48;;;;;;;;;19.80;19.80;;;;;20.33;43.83;100638.31;4985115;28;8962;-76
2022/10/05 10:56:50;;;;;;;;;19.60;18.80;;;;;20.11;42.90;100643.22;4985180;28;8868;-79
2022/10/05 11:00:02;;;;;;;;;21.00;19.60;;;;;19.87;44.21;100642.88;5015142;28;8873;-74
2022/10/05 11:03:02;;;;;;;;;21.20;21.20;;;;;20.35;43.36;100636.50;5043623;28;8939;-76
2022/10/05 11:06:06;;;;;;;;;20.00;20.00;;;;;21.01;42.77;100626.94;5063784;28;8859;-76
2022/10/05 11:08:56;;;;;;;;;18.80;18.80;;;;;20.99;41.60;100634.94;5030299;28;8968;-76
2022/10/05 11:11:58;;;;;;;;;26.75;26.00;;;;;20.93;41.39;100637.75;5007484;28;8928;-77
2022/10/05 11:14:51;;;;;;;;;9.60;8.40;;;;;20.47;41.55;100638.00;5064546;28;9715;-76
2022/10/05 11:17:44;;;;;;;;;18.00;15.40;;;;;20.27;42.36;100620.78;5028005;28;8833;-76
2022/10/05 11:20:48;;;;;;;;;20.80;20.00;;;;;20.81;41.20;100624.81;5050211;28;8997;-75
2022/10/05 11:23:45;;;;;;;;;15.00;14.40;;;;;20.63;41.60;100628.81;4985711;28;8864;-75
2022/10/05 11:26:37;;;;;;;;;15.00;14.20;;;;;21.07;40.61;100610.88;4988387;28;8975;-79
2022/10/05 11:29:33;;;;;;;;;16.00;13.80;;;;;21.19;39.47;100612.31;4988317;28;9693;-77
2022/10/05 11:32:42;;;;;;;;;15.00;14.20;;;;;21.14;39.25;100611.59;4907648;28;9040;-76
2022/10/05 11:35:41;;;;;;;;;18.20;18.20;;;;;21.61;39.35;100610.28;4986821;28;8872;-71
2022/10/05 11:38:49;;;;;;;;;14.20;11.20;;;;;21.77;39.23;100605.38;4986818;28;8848;-68
2022/10/05 11:41:43;;;;;;;;;17.00;16.20;;;;;22.23;38.63;100608.44;4928788;29;8879;-70
2022/10/05 11:44:45;;;;;;;;;5.80;5.20;;;;;22.28;37.94;100609.16;4926349;29;8909;-69
2022/10/05 11:47:22;;;;;;;;;16.40;16.40;;;;;22.55;37.77;100599.44;4928712;29;8843;-78
2022/10/05 11:50:04;;;;;;;;;17.60;16.40;;;;;22.60;37.19;100603.72;4967027;28;8851;-76
2022/10/05 11:52:42;;;;;;;;;19.00;18.60;;;;;22.88;37.49;100598.34;4968612;28;9617;-78
2022/10/05 11:55:22;;;;;;;;;20.60;18.20;;;;;23.06;37.21;100599.50;4919892;28;8973;-77
2022/10/05 11:57:56;;;;;;;;;23.60;23.60;;;;;23.21;36.95;100604.28;4966140;28;8981;-80
2022/10/05 12:00:30;;;;;;;;;23.20;21.80;;;;;23.36;36.97;100602.84;4989736;28;8921;-79
2022/10/05 12:03:41;;;;;;;;;19.80;19.80;;;;;23.64;36.36;100604.50;5032398;28;8957;-81
2022/10/05 12:06:25;;;;;;;;;19.20;18.40;;;;;23.65;36.16;100588.47;5065565;28;8879;-78
2022/10/05 12:09:07;;;;;;;;;24.20;22.80;;;;;23.53;35.81;100589.81;5065654;28;8871;-77
2022/10/05 12:11:52;;;;;;;;;19.80;18.00;;;;;23.67;36.28;100578.63;5066645;28;8872;-78
2022/10/05 12:14:40;;;;;;;;;24.40;22.20;;;;;23.69;36.28;100575.91;5054217;27;9188;-80
2022/10/05 12:17:22;;;;;;;;;23.80;22.40;;;;;23.72;35.77;100579.34;5106993;27;8855;-77
2022/10/05 12:19:56;;;;;;;;;21.60;18.60;;;;;23.69;35.77;100571.44;5107661;28;9495;-79
2022/10/05 12:22:31;;;;;;;;;20.20;19.00;;;;;23.59;35.48;100569.19;5108274;27;8838;-79
2022/10/05 12:25:16;;;;;;;;;20.00;20.00;;;;;23.63;35.39;100571.69;5091244;27;8835;-78
2022/10/05 12:27:46;;;;;;;;;20.60;19.80;;;;;23.53;35.90;100564.97;5091008;27;8853;-77
2022/10/05 12:30:18;;;;;;;;;10.20;8.60;;;;;23.53;35.73;100560.53;5111699;27;8935;-78
2022/10/05 12:32:59;;;;;;;;;16.40;15.40;;;;;23.48;36.20;100557.16;5120303;27;8885;-77
2022/10/05 12:35:35;;;;;;;;;20.80;20.00;;;;;23.42;35.91;100560.06;5118873;27;8840;-78
2022/10/05 12:38:27;;;;;;;;;23.60;20.60;;;;;23.45;36.11;100557.25;5109685;27;8880;-78
2022/10/05 12:41:09;;;;;;;;;18.40;17.80;;;;;23.38;36.74;100563.75;5126776;27;8841;-77